createdAt,value
2018-07-13T00:01:52.949Z,13.30
2018-07-13T00:04:22.576Z,13.30
2018-07-13T00:08:16.048Z,13.20
2018-07-13T00:10:45.566Z,13.30
2018-07-13T00:13:15.064Z,13.30
2018-07-13T00:15:55.323Z,13.20
2018-07-13T00:18:24.808Z,13.10
2018-07-13T00:20:54.331Z,13.10
2018-07-13T00:23:23.821Z,13.10
2018-07-13T00:25:53.384Z,13.00
2018-07-13T00:28:22.984Z,12.90
2018-07-13T00:33:21.396Z,12.80
2018-07-13T00:35:51.017Z,12.80
2018-07-13T00:38:20.500Z,12.80
2018-07-13T00:40:50.017Z,12.70
2018-07-13T00:43:19.508Z,12.70
2018-07-13T00:45:49.021Z,12.70
2018-07-13T00:48:18.488Z,12.80
2018-07-13T00:50:48.016Z,12.80
2018-07-13T00:53:17.501Z,12.80
2018-07-13T00:55:46.981Z,12.80
2018-07-13T00:58:16.520Z,12.80
2018-07-13T01:00:46.004Z,12.80
2018-07-13T01:03:15.852Z,12.70
2018-07-13T01:05:45.364Z,12.70
2018-07-13T01:08:14.876Z,12.70
2018-07-13T01:10:44.396Z,12.80
2018-07-13T01:13:14.128Z,12.80
2018-07-13T01:15:43.676Z,12.90
2018-07-13T01:20:42.335Z,12.90
2018-07-13T01:23:11.887Z,12.80
2018-07-13T01:25:41.679Z,12.70
2018-07-13T01:28:11.180Z,12.60
2018-07-13T01:30:40.672Z,12.50
2018-07-13T01:33:10.192Z,12.50
2018-07-13T01:35:39.671Z,12.50
2018-07-13T01:38:09.169Z,12.60
2018-07-13T01:40:38.665Z,12.60
2018-07-13T01:43:08.180Z,12.70
2018-07-13T01:45:37.668Z,12.70
2018-07-13T01:48:07.175Z,12.60
2018-07-13T01:50:36.827Z,12.50
2018-07-13T01:53:06.475Z,12.50
2018-07-13T01:55:35.998Z,12.40
2018-07-13T01:58:05.729Z,12.30
2018-07-13T02:00:35.208Z,12.20
2018-07-13T02:03:04.716Z,12.20
2018-07-13T02:05:34.217Z,12.10
2018-07-13T02:08:03.742Z,12.10
2018-07-13T02:10:33.251Z,12.00
2018-07-13T02:13:02.775Z,11.90
2018-07-13T02:15:32.259Z,11.70
2018-07-13T02:18:01.781Z,11.60
2018-07-13T02:20:31.268Z,11.50
2018-07-13T02:23:00.772Z,11.50
2018-07-13T02:25:30.465Z,11.50
2018-07-13T02:27:59.968Z,11.50
2018-07-13T02:30:29.448Z,11.40
2018-07-13T02:32:58.964Z,11.40
2018-07-13T02:35:28.452Z,11.50
2018-07-13T02:37:57.982Z,11.50
2018-07-13T02:40:27.465Z,11.60
2018-07-13T02:42:56.972Z,11.70
2018-07-13T02:45:26.452Z,11.80
2018-07-13T02:47:55.960Z,11.90
2018-07-13T02:50:25.452Z,12.00
2018-07-13T02:52:55.057Z,12.10
2018-07-13T02:55:24.546Z,12.20
2018-07-13T02:57:54.068Z,12.20
2018-07-13T03:00:23.734Z,12.20
2018-07-13T03:02:53.257Z,12.20
2018-07-13T03:05:22.763Z,12.10
2018-07-13T03:07:52.396Z,12.20
2018-07-13T03:10:21.880Z,12.20
2018-07-13T03:12:51.383Z,12.20
2018-07-13T03:15:20.872Z,12.20
2018-07-13T03:17:50.393Z,12.20
2018-07-13T03:20:19.883Z,12.20
2018-07-13T03:23:51.673Z,12.20
2018-07-13T03:26:21.160Z,12.30
2018-07-13T03:28:50.666Z,12.30
2018-07-13T03:31:20.144Z,12.30
2018-07-13T03:33:49.640Z,12.30
2018-07-13T03:36:19.348Z,12.40
2018-07-13T03:38:48.854Z,12.30
2018-07-13T03:41:18.364Z,12.30
2018-07-13T03:43:47.868Z,12.30
2018-07-13T03:46:17.352Z,12.30
2018-07-13T03:48:46.885Z,12.30
2018-07-13T03:51:16.356Z,12.30
2018-07-13T03:53:45.860Z,12.20
2018-07-13T03:56:15.564Z,12.30
2018-07-13T03:58:45.075Z,12.30
2018-07-13T04:01:14.593Z,12.30
2018-07-13T04:04:05.375Z,12.40
2018-07-13T04:06:34.907Z,12.40
2018-07-13T04:09:07.716Z,12.40
2018-07-13T04:11:37.294Z,12.50
2018-07-13T04:14:07.657Z,12.30
2018-07-13T04:16:37.161Z,12.30
2018-07-13T04:19:06.904Z,12.20
2018-07-13T04:21:36.596Z,12.20
2018-07-13T04:24:06.296Z,12.30
2018-07-13T04:26:36.247Z,12.20
2018-07-13T04:29:06.078Z,12.30
2018-07-13T04:31:35.576Z,12.30
2018-07-13T04:34:05.096Z,12.30
2018-07-13T04:36:34.920Z,12.50
2018-07-13T04:39:05.091Z,12.60
2018-07-13T04:41:34.605Z,12.60
2018-07-13T04:44:04.132Z,12.70
2018-07-13T04:46:33.784Z,12.80
2018-07-13T04:49:03.544Z,12.80
2018-07-13T04:51:33.148Z,12.90
2018-07-13T04:54:03.164Z,13.10
2018-07-13T04:56:32.946Z,13.10
2018-07-13T04:59:02.680Z,12.90
2018-07-13T05:01:32.425Z,13.10
2018-07-13T05:06:31.172Z,13.20
2018-07-13T05:09:00.784Z,13.30
2018-07-13T05:11:30.344Z,13.30
2018-07-13T05:14:00.328Z,13.50
2018-07-13T05:18:59.600Z,13.30
2018-07-13T05:21:29.230Z,13.50
2018-07-13T05:23:58.972Z,13.70
2018-07-13T05:26:29.373Z,13.80
2018-07-13T05:28:59.128Z,13.90
2018-07-13T05:31:28.905Z,14.00
2018-07-13T05:33:58.692Z,14.20
2018-07-13T05:36:28.347Z,14.00
2018-07-13T05:38:57.975Z,14.10
2018-07-13T05:41:27.943Z,14.10
2018-07-13T05:43:57.959Z,14.10
2018-07-13T05:46:27.544Z,14.40
2018-07-13T05:48:57.261Z,14.50
2018-07-13T05:51:27.017Z,14.60
2018-07-13T05:53:56.709Z,14.80
2018-07-13T05:56:26.717Z,15.20
2018-07-13T05:58:56.356Z,15.60
2018-07-13T06:01:26.035Z,16.00
2018-07-13T06:03:55.679Z,15.70
2018-07-13T06:06:25.396Z,16.10
2018-07-13T06:08:54.972Z,16.20
2018-07-13T06:11:24.714Z,16.40
2018-07-13T06:13:54.325Z,16.70
2018-07-13T06:16:23.827Z,16.90
2018-07-13T06:18:53.368Z,16.80
2018-07-13T06:21:22.925Z,17.10
2018-07-13T06:23:53.940Z,17.00
2018-07-13T06:26:23.436Z,16.90
2018-07-13T06:28:52.996Z,16.70
2018-07-13T06:31:23.386Z,16.60
2018-07-13T06:36:22.285Z,16.70
2018-07-13T06:38:51.861Z,16.50
2018-07-13T06:41:21.612Z,16.40
2018-07-13T06:43:51.208Z,16.50
2018-07-13T06:46:20.728Z,16.70
2018-07-13T06:48:50.324Z,16.70
2018-07-13T06:51:19.953Z,16.60
2018-07-13T06:56:18.496Z,16.70
2018-07-13T06:59:00.656Z,16.40
2018-07-13T07:01:30.247Z,16.30
2018-07-13T07:04:37.727Z,16.60
2018-07-13T07:07:11.830Z,16.80
2018-07-13T07:09:43.648Z,17.10
2018-07-13T07:12:56.273Z,17.30
2018-07-13T07:15:26.203Z,17.30
2018-07-13T07:17:56.139Z,17.50
2018-07-13T07:20:25.680Z,17.60
2018-07-13T07:22:55.257Z,17.60
2018-07-13T07:25:25.299Z,17.60
2018-07-13T07:27:54.888Z,17.60
2018-07-13T07:30:25.532Z,17.90
2018-07-13T07:32:55.068Z,18.10
2018-07-13T07:35:24.560Z,18.10
2018-07-13T07:37:54.067Z,18.30
2018-07-13T07:40:29.983Z,18.40
2018-07-13T07:43:00.193Z,18.60
2018-07-13T07:45:29.888Z,18.50
2018-07-13T07:47:59.457Z,18.60
2018-07-13T07:50:29.048Z,18.60
2018-07-13T07:52:58.653Z,18.60
2018-07-13T07:55:28.200Z,18.60
2018-07-13T07:57:57.708Z,18.80
2018-07-13T08:00:27.274Z,19.00
2018-07-13T08:02:56.792Z,19.40
2018-07-13T08:05:29.707Z,19.40
2018-07-13T08:07:59.359Z,19.40
2018-07-13T08:10:28.900Z,19.70
2018-07-13T08:12:58.428Z,20.00
2018-07-13T08:15:27.969Z,20.50
2018-07-13T08:17:57.500Z,20.30
2018-07-13T08:20:30.726Z,19.90
2018-07-13T08:23:01.749Z,19.90
2018-07-13T08:25:32.113Z,20.00
2018-07-13T08:28:03.801Z,20.10
2018-07-13T08:30:35.553Z,20.30
2018-07-13T08:33:05.205Z,20.30
2018-07-13T08:35:34.753Z,20.70
2018-07-13T08:38:04.128Z,20.90
2018-07-13T08:40:33.746Z,20.90
2018-07-13T08:43:03.429Z,21.10
2018-07-13T08:45:33.016Z,21.20
2018-07-13T08:48:02.679Z,20.70
2018-07-13T08:50:33.012Z,20.50
2018-07-13T08:53:02.704Z,20.80
2018-07-13T08:58:01.424Z,20.20
2018-07-13T09:00:31.173Z,19.90
2018-07-13T09:03:00.728Z,20.40
2018-07-13T09:05:30.646Z,21.10
2018-07-13T09:08:00.132Z,20.90
2018-07-13T09:10:29.616Z,21.00
2018-07-13T09:12:59.204Z,20.70
2018-07-13T09:15:28.852Z,21.00
2018-07-13T09:17:58.452Z,21.00
2018-07-13T09:20:28.064Z,20.80
2018-07-13T09:22:57.553Z,21.00
2018-07-13T09:25:27.083Z,21.50
2018-07-13T09:30:25.893Z,20.90
2018-07-13T09:32:55.412Z,20.90
2018-07-13T09:35:25.024Z,21.10
2018-07-13T09:37:54.630Z,21.30
2018-07-13T09:40:24.385Z,21.50
2018-07-13T09:42:54.131Z,21.90
2018-07-13T09:45:23.640Z,21.80
2018-07-13T09:50:22.720Z,22.60
2018-07-13T09:52:52.729Z,22.60
2018-07-13T09:55:22.247Z,22.70
2018-07-13T09:57:51.716Z,23.00
2018-07-13T10:00:21.649Z,22.50
2018-07-13T10:02:51.260Z,22.00
2018-07-13T10:05:20.861Z,21.60
2018-07-13T10:07:50.423Z,21.50
2018-07-13T10:10:19.963Z,22.00
2018-07-13T10:12:49.560Z,22.60
2018-07-13T10:15:19.132Z,22.90
2018-07-13T10:17:48.924Z,22.70
2018-07-13T10:20:18.519Z,22.50
2018-07-13T10:22:48.240Z,22.20
2018-07-13T10:25:17.996Z,21.60
2018-07-13T10:27:47.726Z,21.90
2018-07-13T10:30:17.473Z,22.10
2018-07-13T10:32:47.197Z,22.50
2018-07-13T10:35:16.985Z,22.50
2018-07-13T10:37:46.607Z,22.70
2018-07-13T10:40:16.124Z,23.00
2018-07-13T10:42:45.617Z,22.30
2018-07-13T10:45:15.164Z,22.20
2018-07-13T10:47:44.678Z,22.50
2018-07-13T10:50:15.762Z,22.30
2018-07-13T10:52:45.279Z,21.60
2018-07-13T10:55:14.785Z,20.70
2018-07-13T10:57:44.288Z,19.90
2018-07-13T11:00:13.821Z,19.90
2018-07-13T11:02:46.280Z,20.30
2018-07-13T11:05:15.912Z,20.50
2018-07-13T11:07:45.412Z,21.20
2018-07-13T11:10:14.879Z,22.30
2018-07-13T11:12:44.384Z,22.80
2018-07-13T11:15:13.888Z,23.40
2018-07-13T11:17:43.396Z,24.10
2018-07-13T11:20:12.871Z,23.70
2018-07-13T11:22:42.631Z,24.20
2018-07-13T11:25:12.107Z,24.20
2018-07-13T11:27:41.620Z,23.50
2018-07-13T11:30:11.140Z,22.90
2018-07-13T11:32:40.640Z,22.90
2018-07-13T11:35:10.156Z,22.90
2018-07-13T11:37:39.653Z,23.30
2018-07-13T11:40:09.128Z,23.80
2018-07-13T11:42:38.652Z,24.60
2018-07-13T11:45:08.144Z,25.50
2018-07-13T11:47:37.708Z,25.90
2018-07-13T11:50:07.263Z,25.60
2018-07-13T11:52:37.087Z,25.00
2018-07-13T11:55:06.648Z,24.30
2018-07-13T11:57:36.128Z,23.50
2018-07-13T12:00:05.891Z,23.30
2018-07-13T12:02:35.445Z,23.60
2018-07-13T12:05:04.956Z,23.90
2018-07-13T12:07:34.774Z,24.00
2018-07-13T12:10:04.653Z,25.30
2018-07-13T12:17:32.136Z,23.30
2018-07-13T12:20:01.882Z,23.10
2018-07-13T12:22:31.437Z,24.30
2018-07-13T12:25:00.932Z,24.90
2018-07-13T12:27:30.783Z,25.60
2018-07-13T12:30:00.263Z,24.90
2018-07-13T12:32:29.803Z,24.90
2018-07-13T12:34:59.657Z,24.80
2018-07-13T12:37:29.184Z,25.90
2018-07-13T12:39:58.711Z,27.00
2018-07-13T12:42:28.254Z,26.70
2018-07-13T12:44:57.735Z,25.70
2018-07-13T12:47:27.232Z,26.30
2018-07-13T12:52:25.640Z,26.70
2018-07-13T12:54:56.321Z,25.70
2018-07-13T12:57:25.830Z,25.40
2018-07-13T12:59:58.238Z,24.10
2018-07-13T13:02:32.887Z,23.70
2018-07-13T13:07:55.285Z,24.80
2018-07-13T13:10:24.840Z,25.30
2018-07-13T13:12:54.753Z,26.50
2018-07-13T13:15:24.351Z,27.10
2018-07-13T13:17:53.901Z,27.10
2018-07-13T13:20:23.396Z,27.30
2018-07-13T13:22:53.000Z,27.30
2018-07-13T13:25:22.609Z,27.40
2018-07-13T13:27:52.142Z,27.20
2018-07-13T13:30:21.640Z,28.30
2018-07-13T13:32:51.158Z,27.90
2018-07-13T13:35:20.669Z,27.60
2018-07-13T13:37:50.177Z,25.60
2018-07-13T13:40:19.658Z,25.40
2018-07-13T13:42:49.186Z,25.60
2018-07-13T13:45:18.689Z,27.60
2018-07-13T13:47:48.193Z,28.50
2018-07-13T13:50:17.689Z,27.70
2018-07-13T13:52:47.202Z,28.30
2018-07-13T13:55:17.545Z,29.20
2018-07-13T13:57:47.068Z,29.70
2018-07-13T14:00:16.585Z,30.10
2018-07-13T14:02:46.093Z,30.70
2018-07-13T14:05:15.706Z,31.60
2018-07-13T14:07:45.149Z,29.60
2018-07-13T14:10:14.977Z,28.70
2018-07-13T14:15:13.733Z,29.20
2018-07-13T14:17:43.265Z,30.20
2018-07-13T14:20:12.796Z,29.00
2018-07-13T14:25:11.308Z,27.20
2018-07-13T14:27:40.853Z,26.80
2018-07-13T14:30:10.346Z,27.50
2018-07-13T14:32:39.881Z,27.30
2018-07-13T14:35:09.397Z,27.30
2018-07-13T14:37:38.929Z,24.90
2018-07-13T14:40:08.710Z,22.10
2018-07-13T14:42:38.260Z,19.60
2018-07-13T14:45:07.837Z,17.60
2018-07-13T14:47:37.361Z,16.90
2018-07-13T14:50:07.021Z,16.80
2018-07-13T14:52:36.561Z,16.90
2018-07-13T14:55:06.342Z,16.90
2018-07-13T14:57:36.205Z,17.00
2018-07-13T15:00:05.759Z,17.10
2018-07-13T15:02:35.285Z,17.30
2018-07-13T15:05:05.031Z,17.60
2018-07-13T15:07:34.565Z,18.00
2018-07-13T15:10:04.090Z,18.00
2018-07-13T15:12:33.631Z,18.10
2018-07-13T15:15:03.123Z,18.10
2018-07-13T15:17:32.670Z,18.00
2018-07-13T15:20:02.205Z,18.00
2018-07-13T15:22:31.777Z,18.10
2018-07-13T15:25:01.273Z,18.20
2018-07-13T15:27:30.797Z,18.40
2018-07-13T15:30:00.309Z,18.50
2018-07-13T15:32:29.846Z,18.60
2018-07-13T15:34:59.369Z,18.70
2018-07-13T15:37:29.058Z,18.90
2018-07-13T15:42:27.524Z,20.10
2018-07-13T15:44:57.050Z,20.30
2018-07-13T15:47:26.564Z,20.40
2018-07-13T15:49:56.105Z,20.70
2018-07-13T15:52:25.633Z,21.50
2018-07-13T15:54:55.169Z,22.00
2018-07-13T15:57:24.681Z,21.70
2018-07-13T15:59:54.197Z,22.30
2018-07-13T16:02:23.745Z,23.00
2018-07-13T16:04:53.629Z,22.60
2018-07-13T16:07:23.205Z,23.30
2018-07-13T16:09:52.722Z,23.40
2018-07-13T16:12:22.401Z,22.60
2018-07-13T16:14:51.933Z,23.10
2018-07-13T16:17:22.003Z,23.60
2018-07-13T16:19:51.761Z,24.20
2018-07-13T16:22:21.273Z,24.10
2018-07-13T16:24:51.005Z,23.60
2018-07-13T16:29:49.421Z,21.80
2018-07-13T16:32:19.090Z,21.30
2018-07-13T16:34:48.601Z,21.10
2018-07-13T16:37:18.106Z,21.20
2018-07-13T16:39:47.933Z,21.00
2018-07-13T16:42:17.425Z,20.80
2018-07-13T16:44:46.962Z,20.60
2018-07-13T16:47:16.450Z,20.40
2018-07-13T16:49:45.957Z,20.30
2018-07-13T16:52:15.461Z,20.10
2018-07-13T16:54:45.006Z,19.90
2018-07-13T16:57:14.589Z,19.90
2018-07-13T16:59:44.169Z,19.80
2018-07-13T17:02:13.693Z,19.70
2018-07-13T17:04:43.249Z,19.60
2018-07-13T17:07:12.765Z,19.50
2018-07-13T17:09:42.285Z,19.40
2018-07-13T17:12:11.871Z,19.30
2018-07-13T17:14:41.421Z,19.10
2018-07-13T17:17:10.949Z,19.00
2018-07-13T17:19:40.508Z,18.90
2018-07-13T17:22:10.162Z,18.90
2018-07-13T17:24:39.701Z,18.90
2018-07-13T17:27:09.213Z,18.90
2018-07-13T17:29:39.450Z,18.90
2018-07-13T17:32:08.958Z,18.90
2018-07-13T17:34:38.497Z,18.90
2018-07-13T17:37:08.076Z,18.90
2018-07-13T17:39:37.658Z,18.90
2018-07-13T17:42:07.173Z,18.70
2018-07-13T17:44:36.713Z,18.30
2018-07-13T17:47:06.412Z,18.10
2018-07-13T17:49:36.070Z,18.10
2018-07-13T17:52:05.581Z,18.00
2018-07-13T17:54:35.128Z,17.90
2018-07-13T17:57:04.670Z,17.90
2018-07-13T17:59:34.204Z,17.80
2018-07-13T18:02:03.717Z,17.80
2018-07-13T18:04:33.240Z,17.80
2018-07-13T18:07:02.813Z,17.80
2018-07-13T18:09:32.409Z,17.80
2018-07-13T18:12:01.933Z,17.80
2018-07-13T18:14:31.466Z,17.70
2018-07-13T18:17:01.013Z,17.70
2018-07-13T18:19:30.577Z,17.70
2018-07-13T18:22:01.125Z,17.70
2018-07-13T18:24:30.781Z,17.80
2018-07-13T18:27:00.290Z,17.80
2018-07-13T18:29:29.808Z,17.80
2018-07-13T18:31:59.385Z,17.80
2018-07-13T18:37:12.920Z,17.80
2018-07-13T18:39:42.529Z,17.70
2018-07-13T18:42:12.100Z,17.60
2018-07-13T18:44:41.621Z,17.50
2018-07-13T18:47:11.692Z,17.40
2018-07-13T18:49:41.431Z,17.30
2018-07-13T18:52:10.954Z,17.20
2018-07-13T18:54:40.525Z,17.00
2018-07-13T18:57:10.049Z,17.00
2018-07-13T18:59:39.603Z,17.00
2018-07-13T19:02:09.130Z,17.10
2018-07-13T19:04:38.842Z,17.20
2018-07-13T19:07:08.373Z,17.30
2018-07-13T19:09:37.969Z,17.30
2018-07-13T19:12:07.754Z,17.30
2018-07-13T19:14:37.310Z,17.30
2018-07-13T19:17:07.117Z,17.40
2018-07-13T19:19:36.794Z,17.40
2018-07-13T19:22:06.329Z,17.30
2018-07-13T19:24:35.861Z,17.30
2018-07-13T19:27:05.374Z,17.20
2018-07-13T19:29:34.937Z,17.30
2018-07-13T19:34:33.629Z,17.30
2018-07-13T19:37:03.141Z,17.30
2018-07-13T19:42:01.600Z,17.30
2018-07-13T19:44:31.133Z,17.20
2018-07-13T19:47:00.634Z,17.10
2018-07-13T19:49:30.165Z,17.10
2018-07-13T19:51:59.685Z,17.00
2018-07-13T19:54:29.221Z,17.00
2018-07-13T19:56:58.905Z,17.00
2018-07-13T19:59:28.492Z,17.00
2018-07-13T20:01:58.245Z,17.00
2018-07-13T20:04:27.772Z,17.10
2018-07-13T20:06:57.286Z,17.10
2018-07-13T20:09:26.882Z,17.10
2018-07-13T20:11:56.409Z,17.10
2018-07-13T20:16:54.894Z,17.00
2018-07-13T20:19:24.477Z,17.00
2018-07-13T20:21:53.989Z,16.90
2018-07-13T20:24:23.518Z,16.80
2018-07-13T20:26:53.037Z,16.70
2018-07-13T20:29:22.749Z,16.80
2018-07-13T20:31:52.296Z,16.90
2018-07-13T20:34:22.205Z,16.90
2018-07-13T20:36:51.753Z,16.90
2018-07-13T20:39:21.900Z,16.90
2018-07-13T20:41:51.590Z,17.00
2018-07-13T20:44:21.116Z,17.00
2018-07-13T20:46:50.630Z,17.10
2018-07-13T20:49:20.230Z,17.10
2018-07-13T20:51:49.824Z,17.10
2018-07-13T20:54:19.449Z,17.10
2018-07-13T20:59:17.956Z,17.10
2018-07-13T21:01:47.477Z,17.00
2018-07-13T21:04:17.027Z,17.00
2018-07-13T21:06:46.526Z,17.00
2018-07-13T21:09:16.184Z,17.00
2018-07-13T21:11:45.724Z,16.90
2018-07-13T21:14:15.216Z,17.00
2018-07-13T21:16:44.756Z,17.00
2018-07-13T21:19:14.521Z,17.00
2018-07-13T21:21:44.067Z,17.00
2018-07-13T21:24:13.627Z,17.00
2018-07-13T21:26:43.235Z,17.00
2018-07-13T21:29:12.787Z,17.00
2018-07-13T21:31:42.395Z,17.00
2018-07-13T21:34:11.940Z,17.10
2018-07-13T21:36:41.468Z,17.10
2018-07-13T21:39:10.976Z,17.10
2018-07-13T21:41:40.508Z,17.20
2018-07-13T21:44:10.004Z,17.30
2018-07-13T21:46:39.572Z,17.40
2018-07-13T21:49:09.157Z,17.50
2018-07-13T21:51:38.756Z,17.50
2018-07-13T21:54:08.576Z,17.60
2018-07-13T21:56:38.228Z,17.60
2018-07-13T21:59:07.728Z,17.60
2018-07-13T22:01:37.330Z,17.70
2018-07-13T22:04:06.878Z,17.70
2018-07-13T22:06:36.380Z,17.60
2018-07-13T22:09:06.416Z,17.60
2018-07-13T22:11:36.016Z,17.50
2018-07-13T22:14:05.612Z,17.50
2018-07-13T22:16:35.184Z,17.50
2018-07-13T22:19:04.749Z,17.50
2018-07-13T22:21:34.734Z,17.40
2018-07-13T22:24:04.284Z,17.40
2018-07-13T22:26:33.778Z,17.40
2018-07-13T22:29:03.395Z,17.40
2018-07-13T22:31:32.997Z,17.50
2018-07-13T22:34:02.546Z,17.60
2018-07-13T22:36:32.054Z,17.50
2018-07-13T22:39:01.601Z,17.50
2018-07-13T22:41:31.161Z,17.40
2018-07-13T22:44:00.852Z,17.50
2018-07-13T22:46:30.476Z,17.50
2018-07-13T22:48:59.968Z,17.40
2018-07-13T22:51:29.489Z,17.40
2018-07-13T22:53:59.008Z,17.40
2018-07-13T22:56:28.437Z,17.40
2018-07-13T22:58:57.893Z,17.40
2018-07-13T23:01:27.753Z,17.30
2018-07-13T23:03:57.322Z,17.40
2018-07-13T23:06:26.826Z,17.30
2018-07-13T23:08:56.325Z,17.20
2018-07-13T23:11:25.781Z,17.10
2018-07-13T23:13:55.750Z,17.00
2018-07-13T23:16:25.264Z,16.90
2018-07-13T23:18:54.710Z,16.80
2018-07-13T23:21:24.236Z,16.80
2018-07-13T23:23:53.713Z,16.80
2018-07-13T23:26:23.276Z,16.80
2018-07-13T23:28:52.781Z,16.80
2018-07-13T23:31:22.301Z,16.70
2018-07-13T23:33:51.753Z,16.80
2018-07-13T23:36:21.252Z,16.70
2018-07-13T23:38:50.853Z,16.80
2018-07-13T23:41:20.352Z,16.90
2018-07-13T23:43:49.897Z,16.90
2018-07-13T23:46:19.441Z,16.90
2018-07-13T23:48:48.947Z,16.90
2018-07-13T23:51:18.474Z,16.80
2018-07-13T23:53:47.983Z,16.80
2018-07-13T23:56:17.514Z,16.80
2018-07-13T23:58:47.445Z,16.70
